createdAt,value
2019-01-31T00:00:38.884Z,986.87
2019-01-31T00:01:38.860Z,986.86
2019-01-31T00:02:38.833Z,986.85
2019-01-31T00:03:38.811Z,986.88
2019-01-31T00:04:38.787Z,986.85
2019-01-31T00:05:38.761Z,986.91
2019-01-31T00:06:38.742Z,986.85
2019-01-31T00:07:38.716Z,986.91
2019-01-31T00:08:45.414Z,986.92
2019-01-31T00:09:38.667Z,986.88
2019-01-31T00:10:38.646Z,986.9
2019-01-31T00:11:38.622Z,986.86
2019-01-31T00:12:38.598Z,986.87
2019-01-31T00:13:38.580Z,986.87
2019-01-31T00:14:38.552Z,986.93
2019-01-31T00:15:38.527Z,986.86
2019-01-31T00:16:38.504Z,986.87
2019-01-31T00:17:38.481Z,986.9
2019-01-31T00:18:38.459Z,986.9
2019-01-31T00:19:38.433Z,986.88
2019-01-31T00:20:38.413Z,986.88
2019-01-31T00:21:38.390Z,986.9
2019-01-31T00:22:38.364Z,986.89
2019-01-31T00:23:38.342Z,986.93
2019-01-31T00:24:38.317Z,986.97
2019-01-31T00:25:38.404Z,986.93
2019-01-31T00:26:38.286Z,986.94
2019-01-31T00:27:38.261Z,986.97
2019-01-31T00:28:38.264Z,986.99
2019-01-31T00:29:38.200Z,987.01
2019-01-31T00:30:38.176Z,986.98
2019-01-31T00:31:38.154Z,986.98
2019-01-31T00:32:38.132Z,987.03
2019-01-31T00:33:38.105Z,987.02
2019-01-31T00:34:38.082Z,987.04
2019-01-31T00:35:38.058Z,987.09
2019-01-31T00:36:38.039Z,987.07
2019-01-31T00:37:38.013Z,987.07
2019-01-31T00:38:37.989Z,987.09
2019-01-31T00:39:37.965Z,987.11
2019-01-31T00:40:37.943Z,987.13
2019-01-31T00:41:37.921Z,987.11
2019-01-31T00:42:37.898Z,987.11
2019-01-31T00:43:37.871Z,987.09
2019-01-31T00:44:37.852Z,987.12
2019-01-31T00:45:37.825Z,987.08
2019-01-31T00:46:37.803Z,987.07
2019-01-31T00:47:37.780Z,987.1
2019-01-31T00:48:37.754Z,987.14
2019-01-31T00:49:37.731Z,987.18
2019-01-31T00:50:37.711Z,987.13
2019-01-31T00:51:37.683Z,987.18
2019-01-31T00:52:37.659Z,987.16
2019-01-31T00:53:37.639Z,987.17
2019-01-31T00:54:37.615Z,987.21
2019-01-31T00:55:37.590Z,987.17
2019-01-31T00:56:37.566Z,987.22
2019-01-31T00:57:37.545Z,987.2
2019-01-31T00:58:37.520Z,987.27
2019-01-31T00:59:37.597Z,987.22
2019-01-31T01:00:37.473Z,987.25
2019-01-31T01:01:37.449Z,987.26
2019-01-31T01:02:37.426Z,987.3
2019-01-31T01:03:37.405Z,987.3
2019-01-31T01:04:37.379Z,987.37
2019-01-31T01:05:37.362Z,987.3
2019-01-31T01:06:37.331Z,987.32
2019-01-31T01:07:37.311Z,987.29
2019-01-31T01:08:37.288Z,987.34
2019-01-31T01:09:37.263Z,987.32
2019-01-31T01:10:37.245Z,987.33
2019-01-31T01:11:37.214Z,987.3
2019-01-31T01:12:37.193Z,987.3
2019-01-31T01:13:37.168Z,987.33
2019-01-31T01:14:37.145Z,987.34
2019-01-31T01:15:37.245Z,987.39
2019-01-31T01:16:37.102Z,987.4
2019-01-31T01:17:37.074Z,987.42
2019-01-31T01:18:37.055Z,987.42
2019-01-31T01:19:37.029Z,987.48
2019-01-31T01:20:37.004Z,987.46
2019-01-31T01:21:36.981Z,987.48
2019-01-31T01:22:36.960Z,987.46
2019-01-31T01:23:36.934Z,987.49
2019-01-31T01:24:36.917Z,987.48
2019-01-31T01:25:36.887Z,987.5
2019-01-31T01:26:36.863Z,987.48
2019-01-31T01:27:36.838Z,987.52
2019-01-31T01:28:36.815Z,987.56
2019-01-31T01:29:36.791Z,987.56
2019-01-31T01:30:36.835Z,987.55
2019-01-31T01:31:36.745Z,987.56
2019-01-31T01:32:36.722Z,987.58
2019-01-31T01:33:36.747Z,987.59
2019-01-31T01:34:36.672Z,987.59
2019-01-31T01:35:36.649Z,987.63
2019-01-31T01:36:36.630Z,987.63
2019-01-31T01:37:36.606Z,987.64
2019-01-31T01:38:36.579Z,987.64
2019-01-31T01:39:36.554Z,987.63
2019-01-31T01:40:36.531Z,987.66
2019-01-31T01:41:36.510Z,987.6
2019-01-31T01:42:36.486Z,987.66
2019-01-31T01:43:36.465Z,987.67
2019-01-31T01:44:36.437Z,987.68
2019-01-31T01:45:36.413Z,987.73
2019-01-31T01:46:36.391Z,987.75
2019-01-31T01:47:36.366Z,987.75
2019-01-31T01:48:36.343Z,987.73
2019-01-31T01:49:36.319Z,987.78
2019-01-31T01:50:36.296Z,987.77
2019-01-31T01:51:36.279Z,987.76
2019-01-31T01:52:36.247Z,987.79
2019-01-31T01:53:36.225Z,987.84
2019-01-31T01:54:36.200Z,987.9
2019-01-31T01:55:36.179Z,987.86
2019-01-31T01:56:36.154Z,987.82
2019-01-31T01:57:36.131Z,987.84
2019-01-31T01:58:36.105Z,987.86
2019-01-31T01:59:36.085Z,987.84
2019-01-31T02:00:36.060Z,987.86
2019-01-31T02:01:36.035Z,987.84
2019-01-31T02:02:36.017Z,987.83
2019-01-31T02:03:35.988Z,987.78
2019-01-31T02:04:35.963Z,987.8
2019-01-31T02:05:35.944Z,987.82
2019-01-31T02:06:35.917Z,987.78
2019-01-31T02:07:35.892Z,987.78
2019-01-31T02:08:35.871Z,987.78
2019-01-31T02:09:35.848Z,987.8
2019-01-31T02:10:35.823Z,987.82
2019-01-31T02:11:35.798Z,987.8
2019-01-31T02:12:35.776Z,987.82
2019-01-31T02:13:35.750Z,987.82
2019-01-31T02:14:35.727Z,987.78
2019-01-31T02:15:35.709Z,987.76
2019-01-31T02:16:35.680Z,987.81
2019-01-31T02:17:35.656Z,987.8
2019-01-31T02:18:35.631Z,987.81
2019-01-31T02:19:35.609Z,987.88
2019-01-31T02:20:35.584Z,987.82
2019-01-31T02:21:35.563Z,987.85
2019-01-31T02:22:35.537Z,987.86
2019-01-31T02:23:35.514Z,987.8
2019-01-31T02:24:35.487Z,987.81
2019-01-31T02:25:35.464Z,987.76
2019-01-31T02:26:35.445Z,987.81
2019-01-31T02:27:35.417Z,987.8
2019-01-31T02:28:35.397Z,987.78
2019-01-31T02:29:35.368Z,987.86
2019-01-31T02:30:35.346Z,987.8
2019-01-31T02:31:35.327Z,987.81
2019-01-31T02:32:35.298Z,987.85
2019-01-31T02:33:35.274Z,987.83
2019-01-31T02:34:35.251Z,987.86
2019-01-31T02:35:35.225Z,987.87
2019-01-31T02:36:35.202Z,987.85
2019-01-31T02:37:35.178Z,987.82
2019-01-31T02:38:35.154Z,987.84
2019-01-31T02:39:42.587Z,987.83
2019-01-31T02:40:35.107Z,987.83
2019-01-31T02:41:35.082Z,987.86
2019-01-31T02:42:35.059Z,987.81
2019-01-31T02:43:35.032Z,987.8
2019-01-31T02:44:35.015Z,987.87
2019-01-31T02:45:34.984Z,987.84
2019-01-31T02:46:35.147Z,987.82
2019-01-31T02:47:34.942Z,987.82
2019-01-31T02:48:34.915Z,987.81
2019-01-31T02:49:34.888Z,987.8
2019-01-31T02:50:34.865Z,987.79
2019-01-31T02:51:34.842Z,987.78
2019-01-31T02:52:34.818Z,987.8
2019-01-31T02:53:34.792Z,987.83
2019-01-31T02:54:34.769Z,987.83
2019-01-31T02:55:34.749Z,987.83
2019-01-31T02:56:34.721Z,987.82
2019-01-31T02:57:34.695Z,987.85
2019-01-31T02:58:34.676Z,987.83
2019-01-31T02:59:34.652Z,987.81
2019-01-31T03:00:34.628Z,987.74
2019-01-31T03:01:34.691Z,987.77
2019-01-31T03:02:34.578Z,987.73
2019-01-31T03:03:34.556Z,987.8
2019-01-31T03:04:34.532Z,987.75
2019-01-31T03:05:34.503Z,987.76
2019-01-31T03:06:34.482Z,987.75
2019-01-31T03:07:34.454Z,987.7
2019-01-31T03:08:34.432Z,987.67
2019-01-31T03:09:34.609Z,987.73
2019-01-31T03:10:34.383Z,987.65
2019-01-31T03:11:34.359Z,987.7
2019-01-31T03:12:34.334Z,987.71
2019-01-31T03:13:34.320Z,987.73
2019-01-31T03:14:34.287Z,987.68
2019-01-31T03:15:34.263Z,987.71
2019-01-31T03:16:34.239Z,987.69
2019-01-31T03:17:34.215Z,987.67
2019-01-31T03:18:34.190Z,987.67
2019-01-31T03:19:34.166Z,987.63
2019-01-31T03:20:34.146Z,987.66
2019-01-31T03:21:34.121Z,987.65
2019-01-31T03:22:34.094Z,987.65
2019-01-31T03:23:34.068Z,987.68
2019-01-31T03:24:34.044Z,987.69
2019-01-31T03:25:34.022Z,987.7
2019-01-31T03:26:34.000Z,987.69
2019-01-31T03:27:33.973Z,987.67
2019-01-31T03:28:33.953Z,987.73
2019-01-31T03:29:33.924Z,987.7
2019-01-31T03:30:33.913Z,987.71
2019-01-31T03:31:33.881Z,987.74
2019-01-31T03:32:33.853Z,987.71
2019-01-31T03:33:33.830Z,987.72
2019-01-31T03:34:33.806Z,987.77
2019-01-31T03:35:33.777Z,987.77
2019-01-31T03:36:33.752Z,987.8
2019-01-31T03:37:33.730Z,987.8
2019-01-31T03:38:33.705Z,987.79
2019-01-31T03:39:33.681Z,987.8
2019-01-31T03:40:33.667Z,987.82
2019-01-31T03:41:33.632Z,987.81
2019-01-31T03:42:33.612Z,987.81
2019-01-31T03:43:33.584Z,987.81
2019-01-31T03:44:33.559Z,987.83
2019-01-31T03:45:33.537Z,987.85
2019-01-31T03:46:33.511Z,987.82
2019-01-31T03:47:33.490Z,987.86
2019-01-31T03:48:33.467Z,987.83
2019-01-31T03:49:33.442Z,987.9
2019-01-31T03:50:33.416Z,987.9
2019-01-31T03:51:33.390Z,987.9
2019-01-31T03:52:33.366Z,987.91
2019-01-31T03:53:33.361Z,987.9
2019-01-31T03:54:33.316Z,987.93
2019-01-31T03:55:33.290Z,987.93
2019-01-31T03:56:33.270Z,987.93
2019-01-31T03:57:33.245Z,987.88
2019-01-31T03:58:33.220Z,987.9
2019-01-31T03:59:33.193Z,987.92
2019-01-31T04:00:33.175Z,987.9
2019-01-31T04:01:33.146Z,987.88
2019-01-31T04:02:33.126Z,987.87
2019-01-31T04:03:33.096Z,987.88
2019-01-31T04:04:33.075Z,987.85
2019-01-31T04:05:33.051Z,987.82
2019-01-31T04:06:33.028Z,987.84
2019-01-31T04:07:33.003Z,987.86
2019-01-31T04:08:32.979Z,987.85
2019-01-31T04:09:32.952Z,987.84
2019-01-31T04:10:32.930Z,987.84
2019-01-31T04:11:32.904Z,987.85
2019-01-31T04:12:32.883Z,987.86
2019-01-31T04:13:32.854Z,987.84
2019-01-31T04:14:32.833Z,987.84
2019-01-31T04:15:32.833Z,987.86
2019-01-31T04:16:32.783Z,987.84
2019-01-31T04:17:32.761Z,987.85
2019-01-31T04:18:32.737Z,987.84
2019-01-31T04:19:32.719Z,987.82
2019-01-31T04:20:32.685Z,987.83
2019-01-31T04:21:32.662Z,987.82
2019-01-31T04:22:32.637Z,987.8
2019-01-31T04:23:32.613Z,987.79
2019-01-31T04:24:32.588Z,987.78
2019-01-31T04:25:32.575Z,987.87
2019-01-31T04:26:32.543Z,987.85
2019-01-31T04:27:32.516Z,987.86
2019-01-31T04:28:32.530Z,987.89
2019-01-31T04:29:32.468Z,987.89
2019-01-31T04:30:32.444Z,987.9
2019-01-31T04:31:32.420Z,987.89
2019-01-31T04:32:32.396Z,987.89
2019-01-31T04:33:32.370Z,987.86
2019-01-31T04:34:32.351Z,987.87
2019-01-31T04:35:32.321Z,987.85
2019-01-31T04:36:32.297Z,987.86
2019-01-31T04:37:32.272Z,987.82
2019-01-31T04:38:32.249Z,987.85
2019-01-31T04:39:32.227Z,987.84
2019-01-31T04:40:32.211Z,987.82
2019-01-31T04:41:32.186Z,987.84
2019-01-31T04:42:32.150Z,987.85
2019-01-31T04:43:32.125Z,987.81
2019-01-31T04:44:32.103Z,987.83
2019-01-31T04:45:32.079Z,987.79
2019-01-31T04:46:32.054Z,987.78
2019-01-31T04:47:32.029Z,987.79
2019-01-31T04:48:32.009Z,987.76
2019-01-31T04:49:31.981Z,987.8
2019-01-31T04:50:31.955Z,987.81
2019-01-31T04:51:31.932Z,987.82
2019-01-31T04:52:31.908Z,987.85
2019-01-31T04:53:31.884Z,987.85
2019-01-31T04:54:31.860Z,987.86
2019-01-31T04:55:31.835Z,987.83
2019-01-31T04:56:31.818Z,987.8
2019-01-31T04:57:31.789Z,987.84
2019-01-31T04:58:31.764Z,987.86
2019-01-31T04:59:31.737Z,987.82
2019-01-31T05:00:31.711Z,987.85
2019-01-31T05:01:31.688Z,987.88
2019-01-31T05:02:31.670Z,987.88
2019-01-31T05:03:31.640Z,987.84
2019-01-31T05:04:31.616Z,987.88
2019-01-31T05:05:31.591Z,987.86
2019-01-31T05:06:31.566Z,987.81
2019-01-31T05:07:31.541Z,987.83
2019-01-31T05:08:31.521Z,987.87
2019-01-31T05:09:31.716Z,987.85
2019-01-31T05:10:42.387Z,987.86
2019-01-31T05:11:31.446Z,987.86
2019-01-31T05:12:31.422Z,987.85
2019-01-31T05:13:31.397Z,987.89
2019-01-31T05:14:31.377Z,987.85
2019-01-31T05:15:31.347Z,987.83
2019-01-31T05:16:31.324Z,987.84
2019-01-31T05:17:31.300Z,987.82
2019-01-31T05:18:31.275Z,987.8
2019-01-31T05:19:31.250Z,987.76
2019-01-31T05:20:31.231Z,987.78
2019-01-31T05:21:31.201Z,987.74
2019-01-31T05:22:31.177Z,987.8
2019-01-31T05:23:31.152Z,987.8
2019-01-31T05:24:31.127Z,987.78
2019-01-31T05:25:31.115Z,987.82
2019-01-31T05:26:31.088Z,987.8
2019-01-31T05:27:31.053Z,987.8
2019-01-31T05:28:31.030Z,987.83
2019-01-31T05:29:31.008Z,987.83
2019-01-31T05:30:30.984Z,987.84
2019-01-31T05:31:30.959Z,987.82
2019-01-31T05:32:30.956Z,987.84
2019-01-31T05:33:30.906Z,987.86
2019-01-31T05:34:30.882Z,987.85
2019-01-31T05:35:30.860Z,987.84
2019-01-31T05:36:30.834Z,987.84
2019-01-31T05:37:30.810Z,987.85
2019-01-31T05:38:30.787Z,987.82
2019-01-31T05:39:30.763Z,987.83
2019-01-31T05:40:30.740Z,987.83
2019-01-31T05:41:30.711Z,987.85
2019-01-31T05:42:30.688Z,987.88
2019-01-31T05:43:30.665Z,987.83
2019-01-31T05:44:30.638Z,987.86
2019-01-31T05:45:30.618Z,987.87
2019-01-31T05:46:30.595Z,987.89
2019-01-31T05:47:30.568Z,987.93
2019-01-31T05:48:30.541Z,987.88
2019-01-31T05:49:30.515Z,987.88
2019-01-31T05:50:30.495Z,987.91
2019-01-31T05:51:30.466Z,987.93
2019-01-31T05:52:30.445Z,987.92
2019-01-31T05:53:30.417Z,987.91
2019-01-31T05:54:30.397Z,987.91
2019-01-31T05:55:30.383Z,987.88
2019-01-31T05:56:30.347Z,987.88
2019-01-31T05:57:30.322Z,987.9
2019-01-31T05:58:30.308Z,987.91
2019-01-31T05:59:30.268Z,987.94
2019-01-31T06:00:30.244Z,987.89
2019-01-31T06:01:30.224Z,987.9
2019-01-31T06:02:30.198Z,987.95
2019-01-31T06:03:30.174Z,987.93
2019-01-31T06:04:30.145Z,987.98
2019-01-31T06:05:30.123Z,987.96
2019-01-31T06:06:30.098Z,987.96
2019-01-31T06:07:30.076Z,987.93
2019-01-31T06:08:30.049Z,987.96
2019-01-31T06:09:30.023Z,987.95
2019-01-31T06:10:30.003Z,987.94
2019-01-31T06:11:29.978Z,988.01
2019-01-31T06:12:29.950Z,988.06
2019-01-31T06:13:29.924Z,988.06
2019-01-31T06:14:29.904Z,988.03
2019-01-31T06:15:29.874Z,988.05
2019-01-31T06:16:29.855Z,988.07
2019-01-31T06:17:29.825Z,988.07
2019-01-31T06:18:29.799Z,988.11
2019-01-31T06:19:29.775Z,988.09
2019-01-31T06:20:29.753Z,988.09
2019-01-31T06:21:29.731Z,988.09
2019-01-31T06:22:29.706Z,988.09
2019-01-31T06:23:29.680Z,988.11
2019-01-31T06:24:29.652Z,988.12
2019-01-31T06:25:29.634Z,988.16
2019-01-31T06:26:29.602Z,988.17
2019-01-31T06:27:29.579Z,988.22
2019-01-31T06:28:29.552Z,988.21
2019-01-31T06:29:29.526Z,988.2
2019-01-31T06:30:29.508Z,988.27
2019-01-31T06:31:29.480Z,988.2
2019-01-31T06:32:29.455Z,988.21
2019-01-31T06:33:29.428Z,988.28
2019-01-31T06:34:29.404Z,988.24
2019-01-31T06:35:29.378Z,988.29
2019-01-31T06:36:29.357Z,988.28
2019-01-31T06:37:29.329Z,988.25
2019-01-31T06:38:29.304Z,988.23
2019-01-31T06:39:29.279Z,988.23
2019-01-31T06:40:29.254Z,988.23
2019-01-31T06:41:29.229Z,988.16
2019-01-31T06:42:29.207Z,988.21
2019-01-31T06:43:29.179Z,988.23
2019-01-31T06:44:29.152Z,988.2
2019-01-31T06:45:29.133Z,988.21
2019-01-31T06:46:29.102Z,988.25
2019-01-31T06:47:29.081Z,988.26
2019-01-31T06:48:29.076Z,988.29
2019-01-31T06:49:29.033Z,988.3
2019-01-31T06:50:29.006Z,988.33
2019-01-31T06:51:28.979Z,988.35
2019-01-31T06:52:28.953Z,988.34
2019-01-31T06:53:28.974Z,988.32
2019-01-31T06:54:28.907Z,988.35
2019-01-31T06:55:28.882Z,988.36
2019-01-31T06:56:28.858Z,988.37
2019-01-31T06:57:28.831Z,988.38
2019-01-31T06:58:28.816Z,988.41
2019-01-31T06:59:28.783Z,988.41
2019-01-31T07:00:28.756Z,988.36
2019-01-31T07:01:28.730Z,988.41
2019-01-31T07:02:28.704Z,988.43
2019-01-31T07:03:28.682Z,988.49
2019-01-31T07:04:28.656Z,988.44
2019-01-31T07:05:28.633Z,988.46
2019-01-31T07:06:28.604Z,988.45
2019-01-31T07:07:28.580Z,988.49
2019-01-31T07:08:28.554Z,988.48
2019-01-31T07:09:28.731Z,988.46
2019-01-31T07:10:28.505Z,988.47
2019-01-31T07:11:29.873Z,988.49
2019-01-31T07:12:28.457Z,988.47
2019-01-31T07:13:28.433Z,988.44
2019-01-31T07:14:28.407Z,988.42
2019-01-31T07:15:28.379Z,988.5
2019-01-31T07:16:28.363Z,988.47
2019-01-31T07:17:28.334Z,988.49
2019-01-31T07:18:28.309Z,988.51
2019-01-31T07:19:28.282Z,988.47
2019-01-31T07:20:28.257Z,988.48
2019-01-31T07:21:28.233Z,988.47
2019-01-31T07:22:28.208Z,988.52
2019-01-31T07:23:28.183Z,988.52
2019-01-31T07:24:28.161Z,988.51
2019-01-31T07:25:28.133Z,988.56
2019-01-31T07:26:28.108Z,988.57
2019-01-31T07:27:28.083Z,988.54
2019-01-31T07:28:28.059Z,988.56
2019-01-31T07:29:28.033Z,988.59
2019-01-31T07:30:28.009Z,988.61
2019-01-31T07:31:28.006Z,988.59
2019-01-31T07:32:27.959Z,988.57
2019-01-31T07:33:27.934Z,988.56
2019-01-31T07:34:27.913Z,988.59
2019-01-31T07:35:27.884Z,988.56
2019-01-31T07:36:27.862Z,988.61
2019-01-31T07:37:27.833Z,988.59
2019-01-31T07:38:27.809Z,988.63
2019-01-31T07:39:27.786Z,988.63
2019-01-31T07:40:27.763Z,988.6
2019-01-31T07:41:27.735Z,988.64
2019-01-31T07:42:27.714Z,988.65
2019-01-31T07:43:27.687Z,988.66
2019-01-31T07:44:27.662Z,988.65
2019-01-31T07:45:27.638Z,988.6
2019-01-31T07:46:27.614Z,988.61
2019-01-31T07:47:27.589Z,988.61
2019-01-31T07:48:27.563Z,988.63
2019-01-31T07:49:27.540Z,988.61
2019-01-31T07:50:27.515Z,988.64
2019-01-31T07:51:27.495Z,988.63
2019-01-31T07:52:27.466Z,988.7
2019-01-31T07:53:27.444Z,988.65
2019-01-31T07:54:27.418Z,988.67
2019-01-31T07:55:27.393Z,988.68
2019-01-31T07:56:27.368Z,988.67
2019-01-31T07:57:27.354Z,988.69
2019-01-31T07:58:27.325Z,988.73
2019-01-31T07:59:27.302Z,988.72
2019-01-31T08:00:27.273Z,988.76
2019-01-31T08:01:27.245Z,988.8
2019-01-31T08:02:27.225Z,988.82
2019-01-31T08:03:27.197Z,988.79
2019-01-31T08:04:27.176Z,988.81
2019-01-31T08:05:27.158Z,988.82
2019-01-31T08:06:27.129Z,988.81
2019-01-31T08:07:28.770Z,988.83
2019-01-31T08:08:27.076Z,988.84
2019-01-31T08:09:27.051Z,988.82
2019-01-31T08:10:27.030Z,988.81
2019-01-31T08:11:27.004Z,988.83
2019-01-31T08:12:26.982Z,988.81
2019-01-31T08:13:26.956Z,988.87
2019-01-31T08:14:26.936Z,988.83
2019-01-31T08:15:26.908Z,988.82
2019-01-31T08:16:26.883Z,988.8
2019-01-31T08:17:26.859Z,988.83
2019-01-31T08:18:26.833Z,988.85
2019-01-31T08:19:26.813Z,988.79
2019-01-31T08:20:26.790Z,988.82
2019-01-31T08:21:26.762Z,988.83
2019-01-31T08:22:26.738Z,988.81
2019-01-31T08:23:26.716Z,988.83
2019-01-31T08:24:26.690Z,988.84
2019-01-31T08:25:26.666Z,988.87
2019-01-31T08:26:26.643Z,988.85
2019-01-31T08:27:26.619Z,988.92
2019-01-31T08:28:26.598Z,988.91
2019-01-31T08:29:26.578Z,988.94
2019-01-31T08:30:26.547Z,988.97
2019-01-31T08:31:26.523Z,988.96
2019-01-31T08:32:26.499Z,988.97
2019-01-31T08:33:28.405Z,988.97
2019-01-31T08:34:26.450Z,988.97
2019-01-31T08:35:26.428Z,988.99
2019-01-31T08:36:26.402Z,989.02
2019-01-31T08:37:26.384Z,989.02
2019-01-31T08:38:26.358Z,989.01
2019-01-31T08:39:26.332Z,989.01
2019-01-31T08:40:26.309Z,989.01
2019-01-31T08:41:26.282Z,989.04
2019-01-31T08:42:26.260Z,989.03
2019-01-31T08:43:26.236Z,989.04
2019-01-31T08:44:26.216Z,989.04
2019-01-31T08:45:26.191Z,989.06
2019-01-31T08:46:26.167Z,989.08
2019-01-31T08:47:26.141Z,989.07
2019-01-31T08:48:26.120Z,989.12
2019-01-31T08:49:26.095Z,989.13
2019-01-31T08:50:27.588Z,989.12
2019-01-31T08:51:26.048Z,989.13
2019-01-31T08:52:26.024Z,989.12
2019-01-31T08:53:26.003Z,989.1
2019-01-31T08:54:26.057Z,989.1
2019-01-31T08:55:25.956Z,989.14
2019-01-31T08:56:25.931Z,989.12
2019-01-31T08:57:25.904Z,989.09
2019-01-31T08:58:25.886Z,989.12
2019-01-31T08:59:25.859Z,989.1
2019-01-31T09:00:25.835Z,989.07
2019-01-31T09:01:25.812Z,989.11
2019-01-31T09:02:25.788Z,989.09
2019-01-31T09:03:25.825Z,989.11
2019-01-31T09:04:25.739Z,989.1
2019-01-31T09:05:25.717Z,989.07
2019-01-31T09:06:25.695Z,989.07
2019-01-31T09:07:25.670Z,989.08
2019-01-31T09:08:25.648Z,989.1
2019-01-31T09:09:25.829Z,989.07
2019-01-31T09:10:25.599Z,989.14
2019-01-31T09:11:25.576Z,989.09
2019-01-31T09:12:25.554Z,989.13
2019-01-31T09:13:25.531Z,989.11
2019-01-31T09:14:25.509Z,989.12
2019-01-31T09:15:25.484Z,989.1
2019-01-31T09:16:25.462Z,989.15
2019-01-31T09:17:25.439Z,989.14
2019-01-31T09:18:25.414Z,989.09
2019-01-31T09:19:25.397Z,989.08
2019-01-31T09:20:25.403Z,989.07
2019-01-31T09:21:25.346Z,989.07
2019-01-31T09:22:25.320Z,989.09
2019-01-31T09:23:25.297Z,989.06
2019-01-31T09:24:25.275Z,989.06
2019-01-31T09:25:25.251Z,989.09
2019-01-31T09:26:25.239Z,989.06
2019-01-31T09:27:25.205Z,989.05
2019-01-31T09:28:25.183Z,989.05
2019-01-31T09:29:25.159Z,989.12
2019-01-31T09:30:25.137Z,989.12
2019-01-31T09:31:25.113Z,989.11
2019-01-31T09:32:25.095Z,989.09
2019-01-31T09:33:25.067Z,989.12
2019-01-31T09:34:25.046Z,989.09
2019-01-31T09:35:25.021Z,989.09
2019-01-31T09:36:24.999Z,989.06
2019-01-31T09:37:24.976Z,989.1
2019-01-31T09:38:24.953Z,989.03
2019-01-31T09:39:24.929Z,989.03
2019-01-31T09:40:24.907Z,989.07
2019-01-31T09:41:24.885Z,989.06
2019-01-31T09:42:26.429Z,989.01
2019-01-31T09:43:24.837Z,989.06
2019-01-31T09:44:24.815Z,989.06
2019-01-31T09:45:24.799Z,989.07
2019-01-31T09:46:24.818Z,989.07
2019-01-31T09:47:24.746Z,989.1
2019-01-31T09:48:24.725Z,989.07
2019-01-31T09:49:24.700Z,989.08
2019-01-31T09:50:24.678Z,989.08
2019-01-31T09:51:24.657Z,989.09
2019-01-31T09:52:24.635Z,989.08
2019-01-31T09:53:24.608Z,989.08
2019-01-31T09:54:24.585Z,989.11
2019-01-31T09:55:24.562Z,989.11
2019-01-31T09:56:24.539Z,989.17
2019-01-31T09:57:24.519Z,989.07
2019-01-31T09:58:24.495Z,989.11
2019-01-31T09:59:24.471Z,989.1
2019-01-31T10:00:27.334Z,989.11
2019-01-31T10:01:24.426Z,989.11
2019-01-31T10:02:24.405Z,989.15
2019-01-31T10:03:24.380Z,989.17
2019-01-31T10:04:24.361Z,989.12
2019-01-31T10:05:24.336Z,989.12
2019-01-31T10:06:24.310Z,989.14
2019-01-31T10:07:24.287Z,989.14
2019-01-31T10:08:24.266Z,989.13
2019-01-31T10:09:24.253Z,989.13
2019-01-31T10:10:24.269Z,989.14
2019-01-31T10:11:24.351Z,989.14
2019-01-31T10:12:24.204Z,989.13
2019-01-31T10:13:24.255Z,989.13
2019-01-31T10:14:24.127Z,989.13
2019-01-31T10:15:24.149Z,989.11
2019-01-31T10:16:24.123Z,989.09
2019-01-31T10:17:24.143Z,989.15
2019-01-31T10:18:24.070Z,989.1
2019-01-31T10:19:24.018Z,989.1
2019-01-31T10:20:24.028Z,989.11
2019-01-31T10:21:23.990Z,989.13
2019-01-31T10:22:23.952Z,989.14
2019-01-31T10:23:23.971Z,989.09
2019-01-31T10:24:23.999Z,989.1
2019-01-31T10:25:23.878Z,989.12
2019-01-31T10:26:23.863Z,989.11
2019-01-31T10:27:23.836Z,989.09
2019-01-31T10:28:23.816Z,989.1
2019-01-31T10:29:23.792Z,989.08
2019-01-31T10:30:23.773Z,989.08
2019-01-31T10:31:23.748Z,989.07
2019-01-31T10:32:23.727Z,989.07
2019-01-31T10:33:23.702Z,989.02
2019-01-31T10:34:23.681Z,989
2019-01-31T10:35:23.658Z,989
2019-01-31T10:36:23.638Z,989.01
2019-01-31T10:37:23.617Z,989.01
2019-01-31T10:38:23.591Z,988.96
2019-01-31T10:39:23.570Z,988.99
2019-01-31T10:40:23.547Z,988.94
2019-01-31T10:41:23.529Z,988.96
2019-01-31T10:42:23.507Z,988.96
2019-01-31T10:43:23.486Z,988.96
2019-01-31T10:44:23.464Z,988.93
2019-01-31T10:45:24.653Z,988.92
2019-01-31T10:46:23.415Z,988.89
2019-01-31T10:47:23.392Z,988.86
2019-01-31T10:48:23.370Z,988.88
2019-01-31T10:49:23.358Z,988.88
2019-01-31T10:50:23.326Z,988.85
2019-01-31T10:51:23.303Z,988.84
2019-01-31T10:52:23.285Z,988.82
2019-01-31T10:53:23.261Z,988.83
2019-01-31T10:54:23.281Z,988.77
2019-01-31T10:55:23.217Z,988.8
2019-01-31T10:56:23.197Z,988.79
2019-01-31T10:57:23.181Z,988.8
2019-01-31T10:58:23.167Z,988.78
2019-01-31T10:59:23.129Z,988.8
2019-01-31T11:00:23.107Z,988.79
2019-01-31T11:01:23.087Z,988.75
2019-01-31T11:02:23.064Z,988.76
2019-01-31T11:03:23.040Z,988.74
2019-01-31T11:04:23.020Z,988.78
2019-01-31T11:05:23.000Z,988.77
2019-01-31T11:06:22.976Z,988.74
2019-01-31T11:07:22.952Z,988.77
2019-01-31T11:08:22.933Z,988.77
2019-01-31T11:09:22.910Z,988.72
2019-01-31T11:10:22.885Z,988.72
2019-01-31T11:11:22.863Z,988.71
2019-01-31T11:12:22.841Z,988.73
2019-01-31T11:13:22.820Z,988.68
2019-01-31T11:14:22.797Z,988.67
2019-01-31T11:15:22.779Z,988.62
2019-01-31T11:16:22.755Z,988.65
2019-01-31T11:17:22.730Z,988.65
2019-01-31T11:18:22.722Z,988.66
2019-01-31T11:19:22.689Z,988.63
2019-01-31T11:20:22.664Z,988.58
2019-01-31T11:21:22.645Z,988.59
2019-01-31T11:22:22.639Z,988.6
2019-01-31T11:23:22.598Z,988.57
2019-01-31T11:24:22.577Z,988.56
2019-01-31T11:25:22.557Z,988.57
2019-01-31T11:26:22.534Z,988.55
2019-01-31T11:27:22.515Z,988.53
2019-01-31T11:28:22.495Z,988.54
2019-01-31T11:29:22.468Z,988.54
2019-01-31T11:30:22.448Z,988.53
2019-01-31T11:31:22.429Z,988.5
2019-01-31T11:32:22.402Z,988.53
2019-01-31T11:33:22.380Z,988.51
2019-01-31T11:34:32.399Z,988.48
2019-01-31T11:35:22.336Z,988.51
2019-01-31T11:36:22.315Z,988.47
2019-01-31T11:37:22.295Z,988.43
2019-01-31T11:38:22.271Z,988.42
2019-01-31T11:39:22.250Z,988.5
2019-01-31T11:40:22.228Z,988.43
2019-01-31T11:41:22.206Z,988.42
2019-01-31T11:42:22.183Z,988.41
2019-01-31T11:43:22.163Z,988.38
2019-01-31T11:44:22.140Z,988.39
2019-01-31T11:45:22.120Z,988.43
2019-01-31T11:46:22.097Z,988.4
2019-01-31T11:47:22.075Z,988.43
2019-01-31T11:48:22.052Z,988.44
2019-01-31T11:49:22.033Z,988.46
2019-01-31T11:50:22.012Z,988.46
2019-01-31T11:51:21.990Z,988.44
2019-01-31T11:52:21.966Z,988.44
2019-01-31T11:53:21.946Z,988.39
2019-01-31T11:54:21.924Z,988.43
2019-01-31T11:55:21.907Z,988.42
2019-01-31T11:56:21.879Z,988.4
2019-01-31T11:57:21.860Z,988.37
2019-01-31T11:58:21.838Z,988.39
2019-01-31T11:59:21.815Z,988.4
2019-01-31T12:00:21.796Z,988.4
2019-01-31T12:01:21.778Z,988.39
2019-01-31T12:02:21.751Z,988.36
2019-01-31T12:03:21.731Z,988.38
2019-01-31T12:04:21.710Z,988.34
2019-01-31T12:05:21.686Z,988.32
2019-01-31T12:06:21.663Z,988.32
2019-01-31T12:07:21.649Z,988.34
2019-01-31T12:08:21.620Z,988.31
2019-01-31T12:09:21.599Z,988.33
2019-01-31T12:10:21.577Z,988.32
2019-01-31T12:11:21.554Z,988.33
2019-01-31T12:12:21.533Z,988.38
2019-01-31T12:13:23.433Z,988.33
2019-01-31T12:14:21.490Z,988.36
2019-01-31T12:15:21.469Z,988.34
2019-01-31T12:16:21.446Z,988.3
2019-01-31T12:17:21.424Z,988.32
2019-01-31T12:18:21.405Z,988.29
2019-01-31T12:19:21.381Z,988.31
2019-01-31T12:20:21.359Z,988.32
2019-01-31T12:21:21.336Z,988.3
2019-01-31T12:22:21.315Z,988.29
2019-01-31T12:23:21.294Z,988.25
2019-01-31T12:24:21.271Z,988.26
2019-01-31T12:25:21.293Z,988.26
2019-01-31T12:26:21.224Z,988.3
2019-01-31T12:27:21.205Z,988.25
2019-01-31T12:28:21.196Z,988.27
2019-01-31T12:29:21.178Z,988.27
2019-01-31T12:30:21.154Z,988.26
2019-01-31T12:31:21.116Z,988.23